Terminal Aerodrome Forecast
Issued by NWS

Home | Current Version | Previous Version | Text Only | Print | Product List | Glossary Off
Versions: 1 2 3 4 5 6 7 8 9 10 11 12

000
FTUS43 KGRB 142300
TAFATW
TAF
KATW 142320Z 1500/1524 21008KT P6SM SCT050 BKN100
     FM151000 24005KT P6SM VCSH BKN050 BKN090
     FM151700 28006KT P6SM VCSH SCT030 BKN070
     FM152100 31007KT P6SM SCT070=

USA.gov is the U.S. government's official web portal to all federal, state and local government web resources and services.